createdAt,value
2019-02-12T00:01:24.567Z,101705.52
2019-02-12T00:03:55.844Z,101711.80
2019-02-12T00:06:28.256Z,101712.06
2019-02-12T00:09:00.301Z,101712.06
2019-02-12T00:11:31.748Z,101712.09
2019-02-12T00:14:03.400Z,101714.28
2019-02-12T00:16:34.740Z,101709.70
2019-02-12T00:19:06.332Z,101709.70
2019-02-12T00:21:38.556Z,101702.34
2019-02-12T00:24:09.941Z,101698.47
2019-02-12T00:26:41.837Z,101698.94
2019-02-12T00:29:13.146Z,101692.48
2019-02-12T00:31:44.826Z,101694.22
2019-02-12T00:34:16.707Z,101701.09
2019-02-12T00:36:48.010Z,101697.58
2019-02-12T00:39:19.616Z,101701.97
2019-02-12T00:41:51.562Z,101700.75
2019-02-12T00:44:24.063Z,101708.00
2019-02-12T00:46:56.588Z,101713.58
2019-02-12T00:49:27.992Z,101711.91
2019-02-12T00:51:59.448Z,101721.19
2019-02-12T00:54:31.230Z,101710.22
2019-02-12T00:57:03.533Z,101709.44
2019-02-12T00:59:36.461Z,101718.97
2019-02-12T01:02:09.057Z,101710.95
2019-02-12T01:04:40.721Z,101706.96
2019-02-12T01:07:12.912Z,101713.09
2019-02-12T01:09:45.447Z,101711.84
2019-02-12T01:12:19.058Z,101720.63
2019-02-12T01:14:50.721Z,101718.89
2019-02-12T01:17:22.073Z,101721.48
2019-02-12T01:19:53.410Z,101726.66
2019-02-12T01:22:24.723Z,101732.64
2019-02-12T01:24:56.034Z,101736.92
2019-02-12T01:27:27.387Z,101736.16
2019-02-12T01:29:58.771Z,101741.47
2019-02-12T01:32:30.201Z,101737.89
2019-02-12T01:35:01.485Z,101746.16
2019-02-12T01:37:33.412Z,101735.45
2019-02-12T01:40:05.520Z,101731.53
2019-02-12T01:42:37.242Z,101725.61
2019-02-12T01:45:10.658Z,101728.17
2019-02-12T01:47:42.304Z,101732.97
2019-02-12T01:50:15.261Z,101729.50
2019-02-12T01:52:46.546Z,101732.16
2019-02-12T01:55:17.873Z,101731.34
2019-02-12T01:57:49.359Z,101741.21
2019-02-12T02:00:20.662Z,101739.33
2019-02-12T02:02:52.046Z,101743.28
2019-02-12T02:05:23.823Z,101746.64
2019-02-12T02:07:57.320Z,101737.92
2019-02-12T02:10:28.707Z,101729.69
2019-02-12T02:13:00.035Z,101735.34
2019-02-12T02:15:31.684Z,101735.34
2019-02-12T02:18:03.019Z,101737.81
2019-02-12T02:20:34.489Z,101733.12
2019-02-12T02:23:06.060Z,101732.64
2019-02-12T02:25:37.928Z,101747.34
2019-02-12T02:34:54.192Z,101767.16
2019-02-12T02:37:27.265Z,101769.74
2019-02-12T02:39:58.537Z,101775.84
2019-02-12T02:42:29.878Z,101777.43
2019-02-12T02:45:01.468Z,101779.02
2019-02-12T02:47:33.085Z,101776.43
2019-02-12T02:50:05.212Z,101782.09
2019-02-12T02:52:37.147Z,101776.84
2019-02-12T02:55:08.973Z,101771.33
2019-02-12T02:57:40.539Z,101776.02
2019-02-12T03:00:12.028Z,101783.27
2019-02-12T03:02:43.935Z,101785.56
2019-02-12T03:05:15.552Z,101787.78
2019-02-12T03:07:47.405Z,101783.89
2019-02-12T03:10:18.633Z,101788.38
2019-02-12T03:12:50.239Z,101784.12
2019-02-12T03:15:21.773Z,101796.69
2019-02-12T03:17:53.098Z,101791.11
2019-02-12T03:20:24.797Z,101793.58
2019-02-12T03:22:56.350Z,101792.41
2019-02-12T03:25:27.909Z,101798.05
2019-02-12T03:27:59.519Z,101806.70
2019-02-12T03:30:30.736Z,101805.89
2019-02-12T03:33:02.311Z,101809.00
2019-02-12T03:35:34.147Z,101811.40
2019-02-12T03:38:05.394Z,101820.57
2019-02-12T03:40:36.914Z,101816.58
2019-02-12T03:43:08.185Z,101815.28
2019-02-12T03:45:39.403Z,101805.30
2019-02-12T03:48:10.629Z,101812.47
2019-02-12T03:50:41.903Z,101813.51
2019-02-12T03:53:13.451Z,101820.42
2019-02-12T03:55:44.668Z,101825.52
2019-02-12T03:58:16.036Z,101815.17
2019-02-12T04:00:48.426Z,101809.06
2019-02-12T04:03:20.120Z,101811.25
2019-02-12T04:05:51.808Z,101813.77
2019-02-12T04:08:23.355Z,101815.76
2019-02-12T04:10:54.970Z,101815.76
2019-02-12T04:13:26.629Z,101823.36
2019-02-12T04:15:58.182Z,101835.45
2019-02-12T04:18:32.594Z,101844.95
2019-02-12T04:21:04.242Z,101840.11
2019-02-12T04:23:36.514Z,101838.70
2019-02-12T04:26:08.102Z,101834.33
2019-02-12T04:28:39.519Z,101825.36
2019-02-12T04:31:10.877Z,101826.53
2019-02-12T04:33:42.403Z,101834.22
2019-02-12T04:36:14.256Z,101833.48
2019-02-12T04:38:45.826Z,101835.70
2019-02-12T04:41:17.014Z,101834.33
2019-02-12T04:43:48.320Z,101841.53
2019-02-12T04:46:19.517Z,101841.65
2019-02-12T04:48:51.073Z,101842.58
2019-02-12T04:51:22.681Z,101859.39
2019-02-12T04:53:54.818Z,101859.39
2019-02-12T04:56:26.777Z,101854.63
2019-02-12T04:58:58.363Z,101855.52
2019-02-12T05:01:33.795Z,101862.05
2019-02-12T05:04:05.026Z,101856.44
2019-02-12T05:06:36.611Z,101868.56
2019-02-12T05:09:22.931Z,101874.50
2019-02-12T05:12:03.365Z,101872.80
2019-02-12T05:14:35.179Z,101874.14
2019-02-12T05:17:06.409Z,101886.52
2019-02-12T05:19:37.693Z,101880.49
2019-02-12T05:22:08.870Z,101874.02
2019-02-12T05:24:40.338Z,101893.09
2019-02-12T05:27:11.622Z,101890.44
2019-02-12T05:29:43.813Z,101885.26
2019-02-12T05:32:15.002Z,101885.22
2019-02-12T05:34:46.246Z,101885.14
2019-02-12T05:37:17.872Z,101891.13
2019-02-12T05:39:51.248Z,101881.66
2019-02-12T05:42:22.533Z,101889.42
2019-02-12T05:44:54.194Z,101894.20
2019-02-12T05:47:25.856Z,101890.20
2019-02-12T05:49:57.491Z,101892.86
2019-02-12T05:52:29.220Z,101891.56
2019-02-12T05:55:00.829Z,101889.02
2019-02-12T05:57:32.432Z,101901.72
2019-02-12T06:00:04.327Z,101903.49
2019-02-12T06:02:35.508Z,101891.25
2019-02-12T06:05:07.154Z,101905.59
2019-02-12T06:07:38.432Z,101909.95
2019-02-12T06:10:11.231Z,101911.30
2019-02-12T06:12:43.426Z,101910.77
2019-02-12T06:15:14.704Z,101917.47
2019-02-12T06:17:46.284Z,101915.77
2019-02-12T06:20:17.534Z,101919.25
2019-02-12T06:22:49.094Z,101926.16
2019-02-12T06:25:20.649Z,101929.84
2019-02-12T06:27:51.900Z,101936.19
2019-02-12T06:30:24.203Z,101934.28
2019-02-12T06:32:55.503Z,101928.63
2019-02-12T06:35:26.712Z,101931.37
2019-02-12T06:37:58.316Z,101931.26
2019-02-12T06:40:30.180Z,101934.20
2019-02-12T06:43:01.476Z,101943.26
2019-02-12T06:45:33.345Z,101952.11
2019-02-12T06:48:05.059Z,101950.00
2019-02-12T06:50:37.048Z,101943.42
2019-02-12T06:53:12.553Z,101955.46
2019-02-12T06:55:42.120Z,101960.62
2019-02-12T06:58:14.003Z,101959.30
2019-02-12T07:00:45.500Z,101962.33
2019-02-12T07:03:22.487Z,101966.94
2019-02-12T07:06:06.237Z,101968.36
2019-02-12T07:09:22.279Z,101973.08
2019-02-12T07:13:17.657Z,101974.41
2019-02-12T07:16:25.877Z,101977.48
2019-02-12T07:19:43.949Z,101984.53
2019-02-12T07:23:11.419Z,101990.99
2019-02-12T07:26:20.502Z,101997.05
2019-02-12T07:29:39.522Z,101996.86
2019-02-12T07:33:13.349Z,102002.35
2019-02-12T07:36:28.003Z,101996.01
2019-02-12T07:39:25.507Z,102015.08
2019-02-12T07:42:39.299Z,102005.02
2019-02-12T07:46:04.643Z,101998.67
2019-02-12T07:49:02.940Z,102008.62
2019-02-12T07:52:30.561Z,102028.91
2019-02-12T07:55:35.929Z,102027.78
2019-02-12T07:58:45.777Z,102028.47
2019-02-12T08:02:09.465Z,102032.12
2019-02-12T08:06:01.190Z,102046.06
2019-02-12T08:09:30.034Z,102042.03
2019-02-12T08:12:38.910Z,102050.97
2019-02-12T08:15:59.753Z,102058.41
2019-02-12T08:19:39.659Z,102069.41
2019-02-12T08:23:27.858Z,102078.63
2019-02-12T08:27:14.546Z,102080.94
2019-02-12T08:30:51.538Z,102083.32
2019-02-12T08:34:39.162Z,102081.91
2019-02-12T08:37:44.429Z,102076.92
2019-02-12T08:40:52.385Z,102074.28
2019-02-12T08:44:46.631Z,102074.03
2019-02-12T08:48:15.689Z,102080.22
2019-02-12T08:51:35.702Z,102086.11
2019-02-12T08:55:11.416Z,102086.72
2019-02-12T08:58:29.406Z,102094.31
2019-02-12T09:01:25.989Z,102100.78
2019-02-12T09:05:09.200Z,102100.20
2019-02-12T09:08:12.363Z,102110.69
2019-02-12T09:11:29.184Z,102116.51
2019-02-12T09:14:16.649Z,102116.73
2019-02-12T09:17:31.583Z,102115.85
2019-02-12T09:21:05.065Z,102114.30
2019-02-12T09:24:44.317Z,102120.71
2019-02-12T09:28:19.572Z,102120.04
2019-02-12T09:32:11.851Z,102125.00
2019-02-12T09:35:13.688Z,102124.30
2019-02-12T09:38:26.856Z,102134.05
2019-02-12T09:41:42.218Z,102141.41
2019-02-12T09:45:13.906Z,102139.00
2019-02-12T09:48:42.420Z,102144.19
2019-02-12T09:52:13.347Z,102152.70
2019-02-12T09:55:26.467Z,102160.97
2019-02-12T09:58:48.604Z,102167.16
2019-02-12T10:01:46.791Z,102173.23
2019-02-12T10:05:21.822Z,102174.05
2019-02-12T10:08:34.582Z,102176.24
2019-02-12T10:11:56.409Z,102177.47
2019-02-12T10:15:26.399Z,102185.25
2019-02-12T10:19:06.562Z,102182.32
2019-02-12T10:22:16.329Z,102186.32
2019-02-12T10:25:30.825Z,102187.47
2019-02-12T10:28:57.871Z,102181.16
2019-02-12T10:31:47.281Z,102188.48
2019-02-12T10:34:19.810Z,102190.30
2019-02-12T10:36:51.408Z,102193.86
2019-02-12T10:39:22.987Z,102195.95
2019-02-12T10:41:54.886Z,102194.69
2019-02-12T10:44:26.518Z,102190.89
2019-02-12T10:46:57.773Z,102188.80
2019-02-12T10:49:29.468Z,102192.05
2019-02-12T10:52:01.314Z,102190.16
2019-02-12T10:54:32.867Z,102188.86
2019-02-12T10:57:04.427Z,102185.86
2019-02-12T10:59:35.648Z,102186.66
2019-02-12T11:02:06.973Z,102186.66
2019-02-12T11:04:38.229Z,102189.67
2019-02-12T11:07:09.760Z,102180.33
2019-02-12T11:09:41.020Z,102182.45
2019-02-12T11:12:12.282Z,102189.84
2019-02-12T11:14:44.101Z,102192.34
2019-02-12T11:17:15.620Z,102201.05
2019-02-12T11:19:47.521Z,102201.56
2019-02-12T11:22:18.842Z,102208.55
2019-02-12T11:24:50.050Z,102213.73
2019-02-12T11:27:21.974Z,102209.13
2019-02-12T11:29:53.183Z,102209.06
2019-02-12T11:32:24.811Z,102214.02
2019-02-12T11:34:56.423Z,102212.44
2019-02-12T11:37:27.772Z,102215.99
2019-02-12T11:39:59.324Z,102216.91
2019-02-12T11:42:31.428Z,102223.13
2019-02-12T11:45:02.981Z,102212.33
2019-02-12T11:47:34.589Z,102221.11
2019-02-12T11:50:06.220Z,102215.76
2019-02-12T11:52:37.502Z,102222.98
2019-02-12T11:55:09.334Z,102220.14
2019-02-12T11:57:40.598Z,102221.53
2019-02-12T12:00:16.186Z,102222.83
2019-02-12T12:02:48.226Z,102227.20
2019-02-12T12:05:20.473Z,102225.95
2019-02-12T12:07:52.039Z,102210.46
2019-02-12T12:10:26.182Z,102206.18
2019-02-12T12:12:59.364Z,102213.66
2019-02-12T12:15:30.913Z,102226.89
2019-02-12T12:18:02.831Z,102223.88
2019-02-12T12:20:35.860Z,102223.72
2019-02-12T12:23:07.389Z,102225.02
2019-02-12T12:25:38.605Z,102229.27
2019-02-12T12:28:10.190Z,102222.89
2019-02-12T12:30:41.733Z,102225.78
2019-02-12T12:33:12.937Z,102221.08
2019-02-12T12:35:44.549Z,102224.02
2019-02-12T12:38:16.094Z,102217.31
2019-02-12T12:40:47.604Z,102220.08
2019-02-12T12:43:19.209Z,102216.39
2019-02-12T12:45:50.428Z,102207.45
2019-02-12T12:48:21.767Z,102205.33
2019-02-12T12:50:53.387Z,102211.09
2019-02-12T12:53:24.840Z,102220.77
2019-02-12T12:55:56.137Z,102220.60
2019-02-12T12:58:27.547Z,102220.60
2019-02-12T13:00:59.696Z,102222.67
2019-02-12T13:03:31.265Z,102222.61
2019-02-12T13:06:03.186Z,102225.30
2019-02-12T13:08:34.709Z,102226.80
2019-02-12T13:11:05.942Z,102220.06
2019-02-12T13:13:37.513Z,102234.89
2019-02-12T13:16:08.697Z,102235.11
2019-02-12T13:18:40.891Z,102246.19
2019-02-12T13:21:12.483Z,102235.37
2019-02-12T13:23:44.071Z,102236.80
2019-02-12T13:26:15.300Z,102246.73
2019-02-12T13:28:46.772Z,102250.67
2019-02-12T13:31:18.172Z,102243.00
2019-02-12T13:33:49.710Z,102242.98
2019-02-12T13:36:20.967Z,102251.48
2019-02-12T13:38:52.513Z,102240.34
2019-02-12T13:41:23.739Z,102249.05
2019-02-12T13:43:54.993Z,102254.36
2019-02-12T13:46:26.571Z,102254.00
2019-02-12T13:48:58.102Z,102249.52
2019-02-12T13:51:29.386Z,102253.78
2019-02-12T13:54:00.806Z,102258.33
2019-02-12T13:56:32.102Z,102264.86
2019-02-12T13:59:03.404Z,102265.16
2019-02-12T14:01:35.376Z,102266.39
2019-02-12T14:04:07.011Z,102266.19
2019-02-12T14:06:38.225Z,102263.81
2019-02-12T14:09:09.723Z,102271.50
2019-02-12T14:11:40.993Z,102269.18
2019-02-12T14:14:12.228Z,102267.80
2019-02-12T14:16:43.397Z,102278.16
2019-02-12T14:19:15.797Z,102274.73
2019-02-12T14:21:47.398Z,102274.88
2019-02-12T14:24:18.654Z,102277.01
2019-02-12T14:26:50.461Z,102281.41
2019-02-12T14:29:24.050Z,102285.16
2019-02-12T14:31:55.906Z,102289.89
2019-02-12T14:34:27.651Z,102284.67
2019-02-12T14:36:59.604Z,102294.94
2019-02-12T14:39:30.827Z,102296.94
2019-02-12T14:42:02.035Z,102293.67
2019-02-12T14:44:34.272Z,102294.09
2019-02-12T14:47:05.791Z,102287.74
2019-02-12T14:49:37.019Z,102293.17
2019-02-12T14:52:08.316Z,102304.34
2019-02-12T14:54:39.545Z,102292.95
2019-02-12T14:57:10.771Z,102294.41
2019-02-12T14:59:42.027Z,102304.66
2019-02-12T15:02:13.238Z,102304.57
2019-02-12T15:04:46.078Z,102307.44
2019-02-12T15:07:17.702Z,102306.50
2019-02-12T15:09:48.910Z,102307.73
2019-02-12T15:12:20.840Z,102297.85
2019-02-12T15:14:52.519Z,102304.27
2019-02-12T15:17:26.848Z,102301.31
2019-02-12T15:19:58.824Z,102305.19
2019-02-12T15:22:30.976Z,102299.16
2019-02-12T15:25:04.476Z,102303.50
2019-02-12T15:27:35.748Z,102293.97
2019-02-12T15:30:11.318Z,102287.34
2019-02-12T15:32:42.854Z,102297.70
2019-02-12T15:35:14.892Z,102298.91
2019-02-12T15:37:46.198Z,102301.23
2019-02-12T15:40:17.427Z,102299.78
2019-02-12T15:42:48.935Z,102301.40
2019-02-12T15:45:20.240Z,102297.70
2019-02-12T15:47:51.842Z,102290.97
2019-02-12T15:50:23.073Z,102298.20
2019-02-12T15:52:54.347Z,102298.01
2019-02-12T15:55:25.634Z,102304.73
2019-02-12T15:57:56.843Z,102311.45
2019-02-12T16:00:28.696Z,102324.29
2019-02-12T16:02:59.906Z,102324.98
2019-02-12T16:05:32.704Z,102324.20
2019-02-12T16:08:05.661Z,102321.05
2019-02-12T16:10:39.564Z,102321.36
2019-02-12T16:13:11.536Z,102326.88
2019-02-12T16:15:45.520Z,102325.67
2019-02-12T16:18:16.777Z,102330.22
2019-02-12T16:20:48.597Z,102331.10
2019-02-12T16:23:20.210Z,102339.51
2019-02-12T16:25:59.197Z,102334.47
2019-02-12T16:28:24.318Z,102338.64
2019-02-12T16:30:55.976Z,102348.78
2019-02-12T16:33:27.563Z,102353.16
2019-02-12T16:35:58.787Z,102357.31
2019-02-12T16:38:30.428Z,102360.21
2019-02-12T16:41:02.195Z,102355.13
2019-02-12T16:43:33.986Z,102357.73
2019-02-12T16:46:10.684Z,102356.69
2019-02-12T16:48:42.537Z,102357.50
2019-02-12T16:51:14.537Z,102359.88
2019-02-12T16:53:46.141Z,102362.84
2019-02-12T16:56:17.701Z,102368.45
2019-02-12T16:58:49.546Z,102369.22
2019-02-12T17:01:21.550Z,102371.22
2019-02-12T17:03:53.115Z,102376.45
2019-02-12T17:06:24.473Z,102374.34
2019-02-12T17:08:56.094Z,102372.04
2019-02-12T17:11:27.495Z,102375.05
2019-02-12T17:13:59.652Z,102372.77
2019-02-12T17:16:31.088Z,102385.68
2019-02-12T17:19:02.345Z,102385.60
2019-02-12T17:21:33.582Z,102388.45
2019-02-12T17:24:04.872Z,102393.05
2019-02-12T17:26:36.424Z,102386.63
2019-02-12T17:29:08.584Z,102390.61
2019-02-12T17:31:39.957Z,102384.84
2019-02-12T17:34:11.222Z,102393.62
2019-02-12T17:36:42.557Z,102401.08
2019-02-12T17:39:13.829Z,102397.70
2019-02-12T17:41:45.119Z,102399.78
2019-02-12T17:44:16.740Z,102396.53
2019-02-12T17:46:48.009Z,102396.53
2019-02-12T17:49:19.571Z,102397.39
2019-02-12T17:51:51.108Z,102394.34
2019-02-12T17:54:22.747Z,102400.11
2019-02-12T17:56:54.733Z,102407.85
2019-02-12T17:59:26.091Z,102395.64
2019-02-12T18:01:57.969Z,102397.88
2019-02-12T18:04:29.301Z,102399.17
2019-02-12T18:07:00.577Z,102402.30
2019-02-12T18:09:32.496Z,102404.39
2019-02-12T18:12:03.781Z,102401.80
2019-02-12T18:14:34.982Z,102398.95
2019-02-12T18:17:06.338Z,102396.77
2019-02-12T18:19:37.984Z,102393.88
2019-02-12T18:22:09.318Z,102389.50
2019-02-12T18:24:40.591Z,102395.17
2019-02-12T18:27:12.413Z,102397.17
2019-02-12T18:29:43.678Z,102390.95
2019-02-12T18:32:15.437Z,102396.06
2019-02-12T18:34:47.021Z,102401.78
2019-02-12T18:37:18.632Z,102402.67
2019-02-12T18:39:53.205Z,102405.80
2019-02-12T18:42:25.466Z,102410.53
2019-02-12T18:44:56.968Z,102404.91
2019-02-12T18:47:28.361Z,102396.95
2019-02-12T18:49:59.967Z,102386.49
2019-02-12T18:52:31.211Z,102387.39
2019-02-12T18:55:02.506Z,102382.48
2019-02-12T18:57:34.079Z,102380.30
2019-02-12T19:00:06.133Z,102381.88
2019-02-12T19:02:37.450Z,102374.88
2019-02-12T19:05:09.283Z,102376.05
2019-02-12T19:07:42.853Z,102374.42
2019-02-12T19:10:15.076Z,102367.81
2019-02-12T19:12:46.513Z,102371.11
2019-02-12T19:15:18.756Z,102370.70
2019-02-12T19:17:55.620Z,102373.22
2019-02-12T19:20:27.055Z,102387.02
2019-02-12T19:22:58.621Z,102379.47
2019-02-12T19:25:30.644Z,102378.17
2019-02-12T19:28:02.174Z,102378.66
2019-02-12T19:30:33.454Z,102383.13
2019-02-12T19:33:04.746Z,102382.64
2019-02-12T19:35:36.251Z,102392.42
2019-02-12T19:38:07.481Z,102390.02
2019-02-12T19:40:38.752Z,102395.61
2019-02-12T19:43:10.340Z,102393.95
2019-02-12T19:45:42.263Z,102397.84
2019-02-12T19:48:17.102Z,102394.77
2019-02-12T19:50:48.971Z,102393.43
2019-02-12T19:53:20.243Z,102392.53
2019-02-12T19:55:52.277Z,102392.90
2019-02-12T19:58:23.889Z,102396.30
2019-02-12T20:00:55.441Z,102395.01
2019-02-12T20:06:10.952Z,102408.80
2019-02-12T20:08:42.572Z,102395.38
2019-02-12T20:11:13.814Z,102395.38
2019-02-12T20:13:45.359Z,102397.97
2019-02-12T20:16:18.517Z,102399.02
2019-02-12T20:18:50.062Z,102399.95
2019-02-12T20:21:21.687Z,102399.95
2019-02-12T20:23:52.955Z,102402.14
2019-02-12T20:26:24.556Z,102395.73
2019-02-12T20:28:55.862Z,102400.92
2019-02-12T20:31:27.649Z,102398.21
2019-02-12T20:33:59.021Z,102403.28
2019-02-12T20:36:30.410Z,102389.70
2019-02-12T20:39:02.293Z,102394.93
2019-02-12T20:41:34.194Z,102402.67
2019-02-12T20:44:05.499Z,102396.06
2019-02-12T20:46:36.817Z,102392.86
2019-02-12T20:49:08.118Z,102385.08
2019-02-12T20:51:39.461Z,102394.03
2019-02-12T20:54:10.722Z,102390.06
2019-02-12T20:56:42.300Z,102387.70
2019-02-12T20:59:13.637Z,102386.00
2019-02-12T21:01:44.852Z,102383.33
2019-02-12T21:10:40.077Z,102387.58
2019-02-12T21:13:11.338Z,102388.47
2019-02-12T21:15:42.734Z,102396.58
2019-02-12T21:18:14.345Z,102398.64
2019-02-12T21:20:47.806Z,102402.53
2019-02-12T21:23:19.078Z,102411.20
2019-02-12T21:25:50.399Z,102409.09
2019-02-12T21:28:21.680Z,102397.34
2019-02-12T21:37:18.442Z,102402.28
2019-02-12T21:39:50.049Z,102406.70
2019-02-12T21:42:21.284Z,102405.77
2019-02-12T21:44:52.985Z,102409.57
2019-02-12T21:47:24.518Z,102400.80
2019-02-12T21:49:58.867Z,102406.16
2019-02-12T21:52:30.256Z,102407.41
2019-02-12T21:55:01.482Z,102402.68
2019-02-12T21:57:33.308Z,102408.71
2019-02-12T22:00:08.655Z,102404.34
2019-02-12T22:02:40.210Z,102411.44
2019-02-12T22:05:13.005Z,102417.55
2019-02-12T22:07:45.163Z,102424.52
2019-02-12T22:10:18.621Z,102414.33
2019-02-12T22:12:50.537Z,102419.11
2019-02-12T22:15:21.973Z,102419.64
2019-02-12T22:17:54.777Z,102415.02
2019-02-12T22:20:26.538Z,102417.66
2019-02-12T22:22:57.839Z,102409.87
2019-02-12T22:25:31.384Z,102415.19
2019-02-12T22:28:02.936Z,102416.73
2019-02-12T22:30:34.535Z,102420.34
2019-02-12T22:33:06.072Z,102414.22
2019-02-12T22:35:37.527Z,102411.42
2019-02-12T22:38:09.131Z,102409.16
2019-02-12T22:40:40.708Z,102416.33
2019-02-12T22:43:11.954Z,102424.11
2019-02-12T22:45:46.356Z,102428.81
2019-02-12T22:48:17.581Z,102438.78
2019-02-12T22:50:48.982Z,102439.91
2019-02-12T22:53:20.265Z,102439.55
2019-02-12T22:55:52.102Z,102432.45
2019-02-12T22:58:23.353Z,102436.42
2019-02-12T23:01:04.655Z,102435.45
2019-02-12T23:03:37.322Z,102427.63
2019-02-12T23:06:08.674Z,102427.83
2019-02-12T23:08:40.035Z,102431.88
2019-02-12T23:11:11.562Z,102425.31
2019-02-12T23:13:43.079Z,102429.16
2019-02-12T23:16:14.847Z,102420.53
2019-02-12T23:18:46.120Z,102424.55
2019-02-12T23:21:17.757Z,102420.05
2019-02-12T23:23:49.063Z,102418.06
2019-02-12T23:26:21.754Z,102410.13
2019-02-12T23:28:52.973Z,102400.59
2019-02-12T23:31:25.199Z,102396.47
2019-02-12T23:33:56.433Z,102391.69
2019-02-12T23:36:30.551Z,102379.13
2019-02-12T23:39:01.846Z,102371.75
2019-02-12T23:41:33.072Z,102374.95
2019-02-12T23:44:04.622Z,102375.76
2019-02-12T23:46:36.215Z,102379.53
2019-02-12T23:49:07.433Z,102398.38
2019-02-12T23:51:38.867Z,102403.84
2019-02-12T23:54:10.411Z,102405.14
2019-02-12T23:56:41.692Z,102400.97
2019-02-12T23:59:13.251Z,102414.39
